Kanpur — A8KG8 — position and weather

sailwx.info

Track history (hours):
 
Tides and Currents Weather Stations Pressure Air Temp Water Temp Dewpoint Dewpoint Depression Visibility Wind Speed Wind Dir Waves Ship Positions

Kanpur

Last reported at 2018-May-21 14:00 UTC. Time now 2018-May-21 14:35 UTC.
Position N 21°09' E 110°24'.

Length 244 m; draft 12.8 m.

Type: Ship. MMSI: 636013055.

Date/timePositionNaut miles runAvg speedWind from/ knotsBaromVisibWave heightAir tempDewpointWater temp
2018-May-21 14:00N 21°09' E 110°24'0 0.0
2018-May-21 13:30N 21°09' E 110°24'0 0.0
2018-May-21 12:54N 21°09' E 110°24'0 0.0
2018-May-21 12:30N 21°09' E 110°24'0 0.0
2018-May-21 12:00N 21°09' E 110°24'0 0.0
2018-May-21 11:27N 21°09' E 110°24'0 0.0
2018-May-21 11:00N 21°09' E 110°24'0 0.0
2018-May-21 10:30N 21°09' E 110°24'0 0.0
2018-May-21 09:45N 21°09' E 110°24'0 0.0
2018-May-21 09:30N 21°09' E 110°24'0 0.0
2018-May-21 08:57N 21°09' E 110°24'0 0.0
2018-May-21 08:30N 21°09' E 110°24'0 0.0
2018-May-21 08:00N 21°09' E 110°24'0 0.0
2018-May-21 07:27N 21°09' E 110°24'0 0.0
2018-May-21 07:00N 21°09' E 110°24'0 0.0
2018-May-21 06:27N 21°09' E 110°24'0 0.0
2018-May-21 05:51N 21°09' E 110°24'0 0.0
2018-May-21 05:27N 21°09' E 110°24'0 0.0
2018-May-21 05:00N 21°09' E 110°24'0 0.0
2018-May-21 04:27N 21°09' E 110°24'0 0.0
2018-May-21 04:00N 21°09' E 110°24'0 0.0
2018-May-21 03:30N 21°09' E 110°24'0 0.0
2018-May-21 03:00N 21°09' E 110°24'0 0.0
2018-May-21 02:30N 21°09' E 110°24'0 0.0
2018-May-21 02:00N 21°09' E 110°24'0 0.0
2018-May-21 01:21N 21°09' E 110°24'0 0.0
2018-May-21 01:00N 21°09' E 110°24'0 0.0
2018-May-21 00:30N 21°09' E 110°24'0 0.0
2018-May-21 00:00N 21°09' E 110°24'0 0.0
2018-May-20 23:27N 21°09' E 110°24'0 0.0
2018-May-20 23:00N 21°09' E 110°24'0 0.0
2018-May-20 22:27N 21°09' E 110°24'0 0.0
2018-May-20 22:00N 21°09' E 110°24'0 0.0
2018-May-20 21:30N 21°09' E 110°24'0 0.0
2018-May-20 21:00N 21°09' E 110°24'0 0.9
2018-May-20 20:30N 21°09' E 110°25'2 5.0
2018-May-20 20:00N 21°07' E 110°26'4 8.1
2018-May-20 19:31N 21°05' E 110°30'611.6
2018-May-20 19:00N 21°03' E 110°36'612.2
2018-May-20 18:30N 21°02' E 110°42'5 9.3
2018-May-20 17:59N 21°00' E 110°47'0 0.4
2018-May-20 17:27N 21°00' E 110°47'0 0.0
2018-May-20 11:45N 21°00' E 110°47'0 0.0
2018-May-20 10:45N 21°00' E 110°47'0 0.5
2018-May-20 10:30N 21°00' E 110°47'1 1.6
2018-May-20 10:00N 21°01' E 110°47'3 6.8
2018-May-20 09:30N 21°01' E 110°51'2 2.0
2018-May-20 08:29N 21°02' E 110°53'0 0.1
2018-May-20 07:47N 21°02' E 110°53'0 0.2
2018-May-20 07:29N 21°02' E 110°53'0 0.1
2018-May-20 06:47N 21°02' E 110°53'0 0.0
2018-May-20 00:02N 21°02' E 110°53'0 0.1
2018-May-19 23:59N 21°02' E 110°53'0 0.3
2018-May-19 23:29N 21°02' E 110°53'0 0.2
2018-May-19 22:59N 21°02' E 110°53'0 0.0
2018-May-19 22:23N 21°02' E 110°53'0 0.0
2018-May-19 21:47N 21°02' E 110°53'0 0.0
2018-May-19 21:20N 21°02' E 110°53'0 0.1
2018-May-19 20:56N 21°02' E 110°53'0 0.1
2018-May-19 20:29N 21°02' E 110°53'0 0.2
2018-May-19 19:56N 21°02' E 110°53'0 0.2
2018-May-19 19:14N 21°02' E 110°53'0 0.0
2018-May-19 16:02N 21°02' E 110°53'0 0.0
2018-May-19 15:53N 21°02' E 110°53'0 0.0
2018-May-19 13:32N 21°02' E 110°53'0 0.0
2018-May-19 13:29N 21°02' E 110°53'0 0.0
2018-May-19 12:59N 21°02' E 110°53'0 0.0
2018-May-19 12:26N 21°02' E 110°53'0 0.0
2018-May-19 06:56N 21°02' E 110°53'0 0.1
2018-May-19 06:22N 21°02' E 110°53'0 0.1
2018-May-19 05:58N 21°02' E 110°53'0 0.2
2018-May-19 05:28N 21°02' E 110°53'0 0.0
2018-May-19 01:37N 21°02' E 110°53'0 0.0
2018-May-19 01:22N 21°02' E 110°53'0 0.0
2018-May-19 00:01N 21°02' E 110°53'0 0.0
2018-May-18 23:40N 21°02' E 110°53'0 0.0
2018-May-18 23:19N 21°02' E 110°53'0 0.1
2018-May-18 22:52N 21°02' E 110°53'0 0.3
2018-May-18 22:28N 21°02' E 110°53'0 0.1
2018-May-18 21:55N 21°02' E 110°53'0 0.1
2018-May-18 21:25N 21°02' E 110°53'0 0.0
2018-May-18 20:58N 21°02' E 110°53'0 0.0
2018-May-18 20:25N 21°02' E 110°53'0 0.0
2018-May-18 19:52N 21°02' E 110°53'0 0.1
2018-May-18 19:28N 21°02' E 110°53'0 0.1
2018-May-18 18:52N 21°02' E 110°53'0 0.2
2018-May-18 18:28N 21°02' E 110°53'0 0.1
2018-May-18 17:55N 21°02' E 110°53'0 0.1
2018-May-18 17:28N 21°02' E 110°53'0 0.0
2018-May-18 12:10N 21°02' E 110°53'0 0.1
2018-May-18 11:10N 21°02' E 110°53'0 0.2
2018-May-18 10:52N 21°02' E 110°53'0 0.1
2018-May-18 07:19N 21°02' E 110°53'0 0.0
2018-May-18 06:37N 21°02' E 110°53'0 0.1
2018-May-18 06:07N 21°02' E 110°53'0 0.2
2018-May-18 05:49N 21°02' E 110°53'0 0.2
2018-May-18 05:10N 21°02' E 110°53'0 0.3
2018-May-18 04:55N 21°02' E 110°53'0 0.0
2018-May-17 23:40N 21°02' E 110°53'0 0.0
2018-May-17 23:22N 21°02' E 110°53'0 0.0
2018-May-17 22:58N 21°02' E 110°53'0 0.0
2018-May-17 22:07N 21°02' E 110°53'0 0.2
2018-May-17 21:52N 21°02' E 110°53'0 0.3
2018-May-17 21:25N 21°02' E 110°53'0 0.1
2018-May-17 20:52N 21°02' E 110°53'0 0.0
2018-May-17 20:28N 21°02' E 110°53'0 0.0
2018-May-17 19:58N 21°02' E 110°53'0 0.0
2018-May-17 19:25N 21°02' E 110°53'0 0.1
2018-May-17 18:58N 21°02' E 110°53'0 0.1
2018-May-17 18:28N 21°02' E 110°53'0 0.0
2018-May-17 17:58N 21°02' E 110°53'0 0.1
2018-May-17 17:25N 21°02' E 110°53'0 0.1
2018-May-17 16:58N 21°02' E 110°53'0 0.1
2018-May-17 16:28N 21°02' E 110°53'0 0.0
2018-May-17 15:55N 21°02' E 110°53'0 0.1
2018-May-17 15:28N 21°02' E 110°53'0 0.0
2018-May-17 14:01N 21°02' E 110°53'0 0.3
2018-May-17 13:49N 21°02' E 110°53'0 0.0
2018-May-17 12:10N 21°02' E 110°53'0 0.0
2018-May-17 11:40N 21°02' E 110°53'0 0.0
2018-May-17 10:37N 21°02' E 110°53'0 0.0
2018-May-17 10:28N 21°02' E 110°53'0 0.2
2018-May-17 09:52N 21°02' E 110°53'0 0.1
2018-May-17 09:28N 21°02' E 110°53'0 0.2
2018-May-17 09:00N 21°02' E 110°53'1 1.8
2018-May-17 08:31N 21°02' E 110°54'3 5.4
2018-May-17 08:01N 21°00' E 110°56'611.0
2018-May-17 07:29N 20°55' E 110°59'711.9
2018-May-17 06:53N 20°49' E 111°03'411.8
2018-May-17 06:30N 20°46' E 111°06'711.9
2018-May-17 05:56N 20°41' E 111°11'512.2
2018-May-17 05:30N 20°36' E 111°15'712.3
2018-May-17 04:58N 20°32' E 111°19'  
2018-May-13 04:54N 01°24' E 104°28'613.6
2018-May-13 04:30N 01°21' E 104°24'713.2
2018-May-13 03:59N 01°17' E 104°18'713.5
2018-May-13 03:30N 01°16' E 104°12'713.2
2018-May-13 02:58N 01°15' E 104°05'511.6
2018-May-13 02:30N 01°15' E 103°60'3 6.2
2018-May-13 01:59N 01°16' E 103°57'1 2.9
2018-May-13 01:29N 01°17' E 103°55'0 0.0
2018-May-13 00:59N 01°17' E 103°55'0 0.0
2018-May-13 00:28N 01°17' E 103°55'0 0.1
2018-May-12 23:59N 01°17' E 103°55'0 0.1
2018-May-12 23:23N 01°17' E 103°55'0 0.0
2018-May-12 22:52N 01°17' E 103°55'0 0.1
2018-May-12 22:22N 01°17' E 103°55'0 0.0
2018-May-12 21:58N 01°17' E 103°55'0 0.2
2018-May-12 21:19N 01°17' E 103°55'0 0.1
2018-May-12 20:58N 01°17' E 103°55'0 0.2
2018-May-12 20:29N 01°17' E 103°55'0 0.1
2018-May-12 19:46N 01°17' E 103°55'0 0.0
2018-May-12 19:29N 01°17' E 103°55'0 0.0
2018-May-12 18:59N 01°17' E 103°55'0 0.0
2018-May-12 18:29N 01°17' E 103°55'0 0.0
2018-May-12 17:58N 01°17' E 103°55'0 0.0
2018-May-12 17:28N 01°17' E 103°55'0 0.0
2018-May-12 16:58N 01°17' E 103°55'0 0.1
2018-May-12 16:29N 01°17' E 103°55'0 0.1
2018-May-12 15:58N 01°17' E 103°55'0 0.2
2018-May-12 15:26N 01°17' E 103°55'0 0.2
2018-May-12 14:53N 01°17' E 103°55'0 0.0
2018-May-12 14:30N 01°17' E 103°55'0 0.8
2018-May-12 13:59N 01°16' E 103°55'2 4.2
2018-May-12 13:30N 01°16' E 103°57'2 3.1
2018-May-12 13:00N 01°14' E 103°57'3 6.5
2018-May-12 12:30N 01°13' E 103°54'3 6.8
2018-May-12 12:00N 01°11' E 103°51'3 6.8
2018-May-12 11:30N 01°10' E 103°48'3 6.2
2018-May-12 10:59N 01°08' E 103°46'4 7.1
2018-May-12 10:30N 01°05' E 103°43'3 6.3
2018-May-12 10:00N 01°03' E 103°41'4 7.8
2018-May-12 09:30N 01°04' E 103°37'6 9.0
2018-May-12 08:53N 01°07' E 103°32'411.4
2018-May-12 08:30N 01°09' E 103°28'611.3
2018-May-12 07:57N 01°12' E 103°23'510.9
2018-May-12 07:28N 01°16' E 103°19'611.2
2018-May-12 06:56N 01°20' E 103°15'  
Track history (hours):
 
Tides and Currents Weather Stations Pressure Air Temp Water Temp Dewpoint Dewpoint Depression Visibility Wind Speed Wind Dir Waves Ship Positions

Kanpur

Last reported at 2018-May-21 14:00 UTC. Time now 2018-May-21 14:35 UTC.
Position N 21°09' E 110°24'.

Length 244 m; draft 12.8 m.

Type: Ship. MMSI: 636013055.

Date/timePositionNaut miles runAvg speedWind from/ knotsBaromVisibWave heightAir tempDewpointWater temp
2018-May-21 14:00N 21°09' E 110°24'0 0.0
2018-May-21 13:30N 21°09' E 110°24'0 0.0
2018-May-21 12:54N 21°09' E 110°24'0 0.0
2018-May-21 12:30N 21°09' E 110°24'0 0.0
2018-May-21 12:00N 21°09' E 110°24'0 0.0
2018-May-21 11:27N 21°09' E 110°24'0 0.0
2018-May-21 11:00N 21°09' E 110°24'0 0.0
2018-May-21 10:30N 21°09' E 110°24'0 0.0
2018-May-21 09:45N 21°09' E 110°24'0 0.0
2018-May-21 09:30N 21°09' E 110°24'0 0.0
2018-May-21 08:57N 21°09' E 110°24'0 0.0
2018-May-21 08:30N 21°09' E 110°24'0 0.0
2018-May-21 08:00N 21°09' E 110°24'0 0.0
2018-May-21 07:27N 21°09' E 110°24'0 0.0
2018-May-21 07:00N 21°09' E 110°24'0 0.0
2018-May-21 06:27N 21°09' E 110°24'0 0.0
2018-May-21 05:51N 21°09' E 110°24'0 0.0
2018-May-21 05:27N 21°09' E 110°24'0 0.0
2018-May-21 05:00N 21°09' E 110°24'0 0.0
2018-May-21 04:27N 21°09' E 110°24'0 0.0
2018-May-21 04:00N 21°09' E 110°24'0 0.0
2018-May-21 03:30N 21°09' E 110°24'0 0.0
2018-May-21 03:00N 21°09' E 110°24'0 0.0
2018-May-21 02:30N 21°09' E 110°24'0 0.0
2018-May-21 02:00N 21°09' E 110°24'0 0.0
2018-May-21 01:21N 21°09' E 110°24'0 0.0
2018-May-21 01:00N 21°09' E 110°24'0 0.0
2018-May-21 00:30N 21°09' E 110°24'0 0.0
2018-May-21 00:00N 21°09' E 110°24'0 0.0
2018-May-20 23:27N 21°09' E 110°24'0 0.0
2018-May-20 23:00N 21°09' E 110°24'0 0.0
2018-May-20 22:27N 21°09' E 110°24'0 0.0
2018-May-20 22:00N 21°09' E 110°24'0 0.0
2018-May-20 21:30N 21°09' E 110°24'0 0.0
2018-May-20 21:00N 21°09' E 110°24'0 0.9
2018-May-20 20:30N 21°09' E 110°25'2 5.0
2018-May-20 20:00N 21°07' E 110°26'4 8.1
2018-May-20 19:31N 21°05' E 110°30'611.6
2018-May-20 19:00N 21°03' E 110°36'612.2
2018-May-20 18:30N 21°02' E 110°42'5 9.3
2018-May-20 17:59N 21°00' E 110°47'0 0.4
2018-May-20 17:27N 21°00' E 110°47'0 0.0
2018-May-20 11:45N 21°00' E 110°47'0 0.0
2018-May-20 10:45N 21°00' E 110°47'0 0.5
2018-May-20 10:30N 21°00' E 110°47'1 1.6
2018-May-20 10:00N 21°01' E 110°47'3 6.8
2018-May-20 09:30N 21°01' E 110°51'2 2.0
2018-May-20 08:29N 21°02' E 110°53'0 0.1
2018-May-20 07:47N 21°02' E 110°53'0 0.2
2018-May-20 07:29N 21°02' E 110°53'0 0.1
2018-May-20 06:47N 21°02' E 110°53'0 0.0
2018-May-20 00:02N 21°02' E 110°53'0 0.1
2018-May-19 23:59N 21°02' E 110°53'0 0.3
2018-May-19 23:29N 21°02' E 110°53'0 0.2
2018-May-19 22:59N 21°02' E 110°53'0 0.0
2018-May-19 22:23N 21°02' E 110°53'0 0.0
2018-May-19 21:47N 21°02' E 110°53'0 0.0
2018-May-19 21:20N 21°02' E 110°53'0 0.1
2018-May-19 20:56N 21°02' E 110°53'0 0.1
2018-May-19 20:29N 21°02' E 110°53'0 0.2
2018-May-19 19:56N 21°02' E 110°53'0 0.2
2018-May-19 19:14N 21°02' E 110°53'0 0.0
2018-May-19 16:02N 21°02' E 110°53'0 0.0
2018-May-19 15:53N 21°02' E 110°53'0 0.0
2018-May-19 13:32N 21°02' E 110°53'0 0.0
2018-May-19 13:29N 21°02' E 110°53'0 0.0
2018-May-19 12:59N 21°02' E 110°53'0 0.0
2018-May-19 12:26N 21°02' E 110°53'0 0.0
2018-May-19 06:56N 21°02' E 110°53'0 0.1
2018-May-19 06:22N 21°02' E 110°53'0 0.1
2018-May-19 05:58N 21°02' E 110°53'0 0.2
2018-May-19 05:28N 21°02' E 110°53'0 0.0
2018-May-19 01:37N 21°02' E 110°53'0 0.0
2018-May-19 01:22N 21°02' E 110°53'0 0.0
2018-May-19 00:01N 21°02' E 110°53'0 0.0
2018-May-18 23:40N 21°02' E 110°53'0 0.0
2018-May-18 23:19N 21°02' E 110°53'0 0.1
2018-May-18 22:52N 21°02' E 110°53'0 0.3
2018-May-18 22:28N 21°02' E 110°53'0 0.1
2018-May-18 21:55N 21°02' E 110°53'0 0.1
2018-May-18 21:25N 21°02' E 110°53'0 0.0
2018-May-18 20:58N 21°02' E 110°53'0 0.0
2018-May-18 20:25N 21°02' E 110°53'0 0.0
2018-May-18 19:52N 21°02' E 110°53'0 0.1
2018-May-18 19:28N 21°02' E 110°53'0 0.1
2018-May-18 18:52N 21°02' E 110°53'0 0.2
2018-May-18 18:28N 21°02' E 110°53'0 0.1
2018-May-18 17:55N 21°02' E 110°53'0 0.1
2018-May-18 17:28N 21°02' E 110°53'0 0.0
2018-May-18 12:10N 21°02' E 110°53'0 0.1
2018-May-18 11:10N 21°02' E 110°53'0 0.2
2018-May-18 10:52N 21°02' E 110°53'0 0.1
2018-May-18 07:19N 21°02' E 110°53'0 0.0
2018-May-18 06:37N 21°02' E 110°53'0 0.1
2018-May-18 06:07N 21°02' E 110°53'0 0.2
2018-May-18 05:49N 21°02' E 110°53'0 0.2
2018-May-18 05:10N 21°02' E 110°53'0 0.3
2018-May-18 04:55N 21°02' E 110°53'0 0.0
2018-May-17 23:40N 21°02' E 110°53'0 0.0
2018-May-17 23:22N 21°02' E 110°53'0 0.0
2018-May-17 22:58N 21°02' E 110°53'0 0.0
2018-May-17 22:07N 21°02' E 110°53'0 0.2
2018-May-17 21:52N 21°02' E 110°53'0 0.3
2018-May-17 21:25N 21°02' E 110°53'0 0.1
2018-May-17 20:52N 21°02' E 110°53'0 0.0
2018-May-17 20:28N 21°02' E 110°53'0 0.0
2018-May-17 19:58N 21°02' E 110°53'0 0.0
2018-May-17 19:25N 21°02' E 110°53'0 0.1
2018-May-17 18:58N 21°02' E 110°53'0 0.1
2018-May-17 18:28N 21°02' E 110°53'0 0.0
2018-May-17 17:58N 21°02' E 110°53'0 0.1
2018-May-17 17:25N 21°02' E 110°53'0 0.1
2018-May-17 16:58N 21°02' E 110°53'0 0.1
2018-May-17 16:28N 21°02' E 110°53'0 0.0
2018-May-17 15:55N 21°02' E 110°53'0 0.1
2018-May-17 15:28N 21°02' E 110°53'0 0.0
2018-May-17 14:01N 21°02' E 110°53'0 0.3
2018-May-17 13:49N 21°02' E 110°53'0 0.0
2018-May-17 12:10N 21°02' E 110°53'0 0.0
2018-May-17 11:40N 21°02' E 110°53'0 0.0
2018-May-17 10:37N 21°02' E 110°53'0 0.0
2018-May-17 10:28N 21°02' E 110°53'0 0.2
2018-May-17 09:52N 21°02' E 110°53'0 0.1
2018-May-17 09:28N 21°02' E 110°53'0 0.2
2018-May-17 09:00N 21°02' E 110°53'1 1.8
2018-May-17 08:31N 21°02' E 110°54'3 5.4
2018-May-17 08:01N 21°00' E 110°56'611.0
2018-May-17 07:29N 20°55' E 110°59'711.9
2018-May-17 06:53N 20°49' E 111°03'411.8
2018-May-17 06:30N 20°46' E 111°06'711.9
2018-May-17 05:56N 20°41' E 111°11'512.2
2018-May-17 05:30N 20°36' E 111°15'712.3
2018-May-17 04:58N 20°32' E 111°19'  
2018-May-13 04:54N 01°24' E 104°28'613.6
2018-May-13 04:30N 01°21' E 104°24'713.2
2018-May-13 03:59N 01°17' E 104°18'713.5
2018-May-13 03:30N 01°16' E 104°12'713.2
2018-May-13 02:58N 01°15' E 104°05'511.6
2018-May-13 02:30N 01°15' E 103°60'3 6.2
2018-May-13 01:59N 01°16' E 103°57'1 2.9
2018-May-13 01:29N 01°17' E 103°55'0 0.0
2018-May-13 00:59N 01°17' E 103°55'0 0.0
2018-May-13 00:28N 01°17' E 103°55'0 0.1
2018-May-12 23:59N 01°17' E 103°55'0 0.1
2018-May-12 23:23N 01°17' E 103°55'0 0.0
2018-May-12 22:52N 01°17' E 103°55'0 0.1
2018-May-12 22:22N 01°17' E 103°55'0 0.0
2018-May-12 21:58N 01°17' E 103°55'0 0.2
2018-May-12 21:19N 01°17' E 103°55'0 0.1
2018-May-12 20:58N 01°17' E 103°55'0 0.2
2018-May-12 20:29N 01°17' E 103°55'0 0.1
2018-May-12 19:46N 01°17' E 103°55'0 0.0
2018-May-12 19:29N 01°17' E 103°55'0 0.0
2018-May-12 18:59N 01°17' E 103°55'0 0.0
2018-May-12 18:29N 01°17' E 103°55'0 0.0
2018-May-12 17:58N 01°17' E 103°55'0 0.0
2018-May-12 17:28N 01°17' E 103°55'0 0.0
2018-May-12 16:58N 01°17' E 103°55'0 0.1
2018-May-12 16:29N 01°17' E 103°55'0 0.1
2018-May-12 15:58N 01°17' E 103°55'0 0.2
2018-May-12 15:26N 01°17' E 103°55'0 0.2
2018-May-12 14:53N 01°17' E 103°55'0 0.0
2018-May-12 14:30N 01°17' E 103°55'0 0.8
2018-May-12 13:59N 01°16' E 103°55'2 4.2
2018-May-12 13:30N 01°16' E 103°57'2 3.1
2018-May-12 13:00N 01°14' E 103°57'3 6.5
2018-May-12 12:30N 01°13' E 103°54'3 6.8
2018-May-12 12:00N 01°11' E 103°51'3 6.8
2018-May-12 11:30N 01°10' E 103°48'3 6.2
2018-May-12 10:59N 01°08' E 103°46'4 7.1
2018-May-12 10:30N 01°05' E 103°43'3 6.3
2018-May-12 10:00N 01°03' E 103°41'4 7.8
2018-May-12 09:30N 01°04' E 103°37'6 9.0
2018-May-12 08:53N 01°07' E 103°32'411.4
2018-May-12 08:30N 01°09' E 103°28'611.3
2018-May-12 07:57N 01°12' E 103°23'510.9
2018-May-12 07:28N 01°16' E 103°19'611.2
2018-May-12 06:56N 01°20' E 103°15'  

Dump ship's entire track history